createdAt,value
2017-07-19T00:01:02.274Z,22.00
2017-07-19T00:03:29.806Z,21.90
2017-07-19T00:05:57.641Z,21.90
2017-07-19T00:08:25.186Z,21.90
2017-07-19T00:10:52.719Z,21.90
2017-07-19T00:13:20.294Z,21.80
2017-07-19T00:15:47.950Z,21.80
2017-07-19T00:18:15.491Z,21.80
2017-07-19T00:20:43.070Z,21.80
2017-07-19T00:23:10.615Z,21.80
2017-07-19T00:25:38.489Z,21.80
2017-07-19T00:28:06.030Z,21.80
2017-07-19T00:30:33.575Z,21.70
2017-07-19T00:33:01.222Z,21.70
2017-07-19T00:35:29.141Z,21.70
2017-07-19T00:37:56.685Z,21.60
2017-07-19T00:40:24.221Z,21.60
2017-07-19T00:42:51.960Z,21.60
2017-07-19T00:45:19.498Z,21.60
2017-07-19T00:47:53.258Z,21.60
2017-07-19T00:50:20.798Z,21.60
2017-07-19T00:52:48.453Z,21.50
2017-07-19T00:55:16.454Z,21.60
2017-07-19T00:57:44.077Z,21.50
2017-07-19T01:00:12.391Z,21.50
2017-07-19T01:02:39.937Z,21.50
2017-07-19T01:05:07.509Z,21.50
2017-07-19T01:07:35.053Z,21.50
2017-07-19T01:10:02.914Z,21.40
2017-07-19T01:12:30.501Z,21.50
2017-07-19T01:14:58.037Z,21.40
2017-07-19T01:17:26.382Z,21.40
2017-07-19T01:19:53.961Z,21.40
2017-07-19T01:22:21.542Z,21.40
2017-07-19T01:24:49.077Z,21.40
2017-07-19T01:27:16.861Z,21.40
2017-07-19T01:29:44.400Z,21.40
2017-07-19T01:32:12.043Z,21.30
2017-07-19T01:34:39.584Z,21.30
2017-07-19T01:37:07.434Z,21.30
2017-07-19T01:39:34.975Z,21.20
2017-07-19T01:42:02.515Z,21.20
2017-07-19T01:44:30.282Z,21.20
2017-07-19T01:46:58.631Z,21.20
2017-07-19T01:49:26.499Z,21.20
2017-07-19T01:51:54.037Z,21.20
2017-07-19T01:54:21.587Z,21.20
2017-07-19T01:56:49.283Z,21.20
2017-07-19T01:59:16.829Z,21.20
2017-07-19T02:01:44.587Z,21.20
2017-07-19T02:04:12.130Z,21.10
2017-07-19T02:06:39.726Z,21.10
2017-07-19T02:09:07.279Z,21.10
2017-07-19T02:11:34.863Z,21.10
2017-07-19T02:14:02.451Z,21.00
2017-07-19T02:16:29.995Z,21.00
2017-07-19T02:18:58.954Z,21.00
2017-07-19T02:21:26.493Z,20.90
2017-07-19T02:23:54.044Z,20.90
2017-07-19T02:26:22.058Z,20.90
2017-07-19T02:28:49.597Z,20.90
2017-07-19T02:31:17.145Z,20.80
2017-07-19T02:33:48.746Z,20.80
2017-07-19T02:36:16.286Z,20.80
2017-07-19T02:38:43.828Z,20.80
2017-07-19T02:41:11.564Z,20.80
2017-07-19T02:43:39.111Z,20.80
2017-07-19T02:46:07.848Z,20.80
2017-07-19T02:48:35.387Z,20.70
2017-07-19T02:51:02.935Z,20.80
2017-07-19T02:53:30.520Z,20.70
2017-07-19T02:55:58.069Z,20.80
2017-07-19T02:58:25.768Z,20.80
2017-07-19T03:00:53.305Z,20.80
2017-07-19T03:03:21.134Z,20.70
2017-07-19T03:05:49.481Z,20.70
2017-07-19T03:08:17.028Z,20.70
2017-07-19T03:10:44.613Z,20.70
2017-07-19T03:13:12.154Z,20.70
2017-07-19T03:15:40.119Z,20.70
2017-07-19T03:18:07.662Z,20.70
2017-07-19T03:20:35.205Z,20.60
2017-07-19T03:23:02.789Z,20.60
2017-07-19T03:25:30.370Z,20.60
2017-07-19T03:27:57.912Z,20.60
2017-07-19T03:30:25.499Z,20.50
2017-07-19T03:32:53.043Z,20.50
2017-07-19T03:35:21.208Z,20.50
2017-07-19T03:37:48.794Z,20.50
2017-07-19T03:40:16.343Z,20.50
2017-07-19T03:42:43.926Z,20.50
2017-07-19T03:45:12.242Z,20.50
2017-07-19T03:47:40.083Z,20.50
2017-07-19T03:50:07.624Z,20.50
2017-07-19T03:52:35.163Z,20.50
2017-07-19T03:55:02.961Z,20.50
2017-07-19T03:57:31.270Z,20.50
2017-07-19T03:59:58.850Z,20.50
2017-07-19T04:02:26.434Z,20.50
2017-07-19T04:04:53.996Z,20.50
2017-07-19T04:07:21.590Z,20.50
2017-07-19T04:09:49.124Z,20.50
2017-07-19T04:12:16.965Z,20.60
2017-07-19T04:14:44.514Z,20.60
2017-07-19T04:17:12.397Z,20.60
2017-07-19T04:19:39.938Z,20.60
2017-07-19T04:22:07.481Z,20.70
2017-07-19T04:24:35.061Z,20.70
2017-07-19T04:27:02.642Z,20.70
2017-07-19T04:29:30.186Z,20.80
2017-07-19T04:31:58.520Z,20.80
2017-07-19T04:34:27.058Z,20.80
2017-07-19T04:36:54.600Z,20.80
2017-07-19T04:39:22.705Z,20.80
2017-07-19T04:41:50.253Z,20.70
2017-07-19T04:44:17.795Z,20.80
2017-07-19T04:46:45.773Z,20.80
2017-07-19T04:49:13.319Z,20.80
2017-07-19T04:51:40.960Z,20.90
2017-07-19T04:54:08.610Z,20.90
2017-07-19T04:56:37.147Z,21.00
2017-07-19T04:59:04.729Z,20.90
2017-07-19T05:01:32.676Z,21.00
2017-07-19T05:04:00.323Z,21.10
2017-07-19T05:06:27.874Z,21.10
2017-07-19T05:08:55.651Z,21.10
2017-07-19T05:11:23.190Z,21.20
2017-07-19T05:13:50.771Z,21.30
2017-07-19T05:16:18.313Z,21.30
2017-07-19T05:18:45.894Z,21.30
2017-07-19T05:21:13.442Z,21.30
2017-07-19T05:23:41.022Z,21.40
2017-07-19T05:26:08.572Z,21.50
2017-07-19T05:28:36.724Z,21.60
2017-07-19T05:31:04.266Z,21.70
2017-07-19T05:33:31.810Z,21.70
2017-07-19T05:35:59.745Z,21.80
2017-07-19T05:38:27.284Z,21.90
2017-07-19T05:40:54.831Z,21.90
2017-07-19T05:43:22.482Z,22.00
2017-07-19T05:45:50.528Z,22.10
2017-07-19T05:48:18.092Z,22.20
2017-07-19T05:50:45.641Z,22.20
2017-07-19T05:53:13.393Z,22.30
2017-07-19T05:55:41.005Z,22.30
2017-07-19T05:58:08.585Z,22.30
2017-07-19T06:00:36.132Z,22.30
2017-07-19T06:03:05.394Z,22.40
2017-07-19T06:05:32.942Z,22.50
2017-07-19T06:08:00.477Z,22.50
2017-07-19T06:10:28.194Z,22.50
2017-07-19T06:12:55.742Z,22.60
2017-07-19T06:15:23.278Z,22.60
2017-07-19T06:17:50.861Z,22.60
2017-07-19T06:20:18.414Z,22.70
2017-07-19T06:22:47.701Z,22.80
2017-07-19T06:25:15.243Z,22.80
2017-07-19T06:27:42.786Z,22.80
2017-07-19T06:30:10.373Z,22.90
2017-07-19T06:32:37.958Z,22.90
2017-07-19T06:35:05.503Z,23.00
2017-07-19T06:37:33.457Z,23.00
2017-07-19T06:40:01.006Z,23.10
2017-07-19T06:42:28.549Z,23.10
2017-07-19T06:44:56.561Z,23.20
2017-07-19T06:47:24.093Z,23.30
2017-07-19T06:49:51.646Z,23.40
2017-07-19T06:52:19.233Z,23.40
2017-07-19T06:54:51.203Z,23.50
2017-07-19T06:57:18.749Z,23.50
2017-07-19T06:59:46.289Z,23.60
2017-07-19T07:02:13.956Z,23.70
2017-07-19T07:04:41.686Z,23.80
2017-07-19T07:07:09.995Z,23.90
2017-07-19T07:09:37.539Z,23.90
2017-07-19T07:12:05.265Z,24.00
2017-07-19T07:14:32.809Z,24.10
2017-07-19T07:17:00.342Z,24.10
2017-07-19T07:19:27.925Z,24.20
2017-07-19T07:21:55.465Z,24.30
2017-07-19T07:24:23.052Z,24.30
2017-07-19T07:26:53.482Z,24.40
2017-07-19T07:29:21.013Z,24.50
2017-07-19T07:31:48.554Z,24.50
2017-07-19T07:34:16.134Z,24.60
2017-07-19T07:36:43.673Z,24.70
2017-07-19T07:39:11.589Z,24.80
2017-07-19T07:41:39.130Z,24.80
2017-07-19T07:44:06.672Z,24.90
2017-07-19T07:46:35.069Z,25.10
2017-07-19T07:49:02.648Z,25.10
2017-07-19T07:51:30.181Z,25.20
2017-07-19T07:53:57.774Z,25.40
2017-07-19T07:56:25.710Z,25.50
2017-07-19T07:58:53.250Z,25.60
2017-07-19T08:01:21.163Z,25.70
2017-07-19T08:03:48.704Z,25.80
2017-07-19T08:06:16.255Z,25.90
2017-07-19T08:08:44.362Z,26.00
2017-07-19T08:11:11.892Z,26.10
2017-07-19T08:13:39.421Z,26.20
2017-07-19T08:16:06.993Z,26.30
2017-07-19T08:18:34.534Z,26.40
2017-07-19T08:21:02.112Z,26.50
2017-07-19T08:23:29.690Z,26.60
2017-07-19T08:25:57.229Z,26.70
2017-07-19T08:28:24.997Z,26.80
2017-07-19T08:30:52.525Z,26.80
2017-07-19T08:33:20.566Z,26.90
2017-07-19T08:35:48.102Z,27.00
2017-07-19T08:38:15.641Z,27.10
2017-07-19T08:40:43.978Z,27.20
2017-07-19T08:43:12.056Z,27.10
2017-07-19T08:45:39.589Z,27.20
2017-07-19T08:48:07.130Z,27.30
2017-07-19T08:50:34.770Z,27.30
2017-07-19T08:53:03.429Z,27.50
2017-07-19T08:55:31.229Z,27.50
2017-07-19T08:57:59.522Z,27.70
2017-07-19T09:00:27.565Z,27.60
2017-07-19T09:02:55.868Z,27.80
2017-07-19T09:05:23.397Z,27.80
2017-07-19T09:07:52.102Z,27.90
2017-07-19T09:10:20.398Z,28.00
2017-07-19T09:12:47.937Z,28.00
2017-07-19T09:15:19.334Z,28.20
2017-07-19T09:17:46.878Z,28.20
2017-07-19T09:20:14.414Z,28.30
2017-07-19T09:22:41.988Z,28.40
2017-07-19T09:25:09.562Z,28.50
2017-07-19T09:27:37.094Z,28.60
2017-07-19T09:30:04.631Z,28.60
2017-07-19T09:32:32.325Z,28.70
2017-07-19T09:34:59.853Z,28.80
2017-07-19T09:37:27.793Z,29.00
2017-07-19T09:39:55.325Z,29.00
2017-07-19T09:42:22.863Z,29.10
2017-07-19T09:44:50.436Z,29.20
2017-07-19T09:47:17.964Z,29.30
2017-07-19T09:49:46.817Z,29.50
2017-07-19T09:52:14.388Z,29.40
2017-07-19T09:54:41.959Z,29.50
2017-07-19T09:57:10.075Z,29.60
2017-07-19T09:59:38.089Z,29.70
2017-07-19T10:02:05.630Z,29.80
2017-07-19T10:04:33.160Z,29.90
2017-07-19T10:07:03.445Z,30.00
2017-07-19T10:09:30.983Z,30.10
2017-07-19T10:11:58.837Z,30.10
2017-07-19T10:14:26.370Z,30.10
2017-07-19T10:16:53.914Z,30.20
2017-07-19T10:19:21.488Z,30.30
2017-07-19T10:21:49.026Z,30.30
2017-07-19T10:24:19.211Z,30.40
2017-07-19T10:26:46.751Z,30.50
2017-07-19T10:29:14.320Z,30.50
2017-07-19T10:31:41.858Z,30.60
2017-07-19T10:34:09.438Z,30.60
2017-07-19T10:36:36.978Z,30.70
2017-07-19T10:39:07.439Z,30.70
2017-07-19T10:41:34.977Z,30.80
2017-07-19T10:44:02.510Z,30.80
2017-07-19T10:46:30.849Z,31.00
2017-07-19T10:48:58.425Z,31.00
2017-07-19T10:51:26.739Z,31.20
2017-07-19T10:53:57.415Z,31.20
2017-07-19T10:56:25.090Z,31.30
2017-07-19T10:58:52.905Z,31.30
2017-07-19T11:01:20.447Z,31.40
2017-07-19T11:03:47.974Z,31.50
2017-07-19T11:06:15.542Z,31.40
2017-07-19T11:08:43.076Z,31.50
2017-07-19T11:11:11.158Z,31.50
2017-07-19T11:13:38.687Z,31.60
2017-07-19T11:16:06.218Z,31.70
2017-07-19T11:18:33.792Z,31.70
2017-07-19T11:21:01.329Z,31.80
2017-07-19T11:23:28.912Z,31.80
2017-07-19T11:25:56.510Z,31.90
2017-07-19T11:28:24.190Z,31.90
2017-07-19T11:30:51.725Z,31.90
2017-07-19T11:33:19.501Z,32.00
2017-07-19T11:35:47.039Z,32.00
2017-07-19T11:38:17.393Z,32.10
2017-07-19T11:40:44.921Z,32.20
2017-07-19T11:43:12.455Z,32.30
2017-07-19T11:45:40.796Z,32.20
2017-07-19T11:48:08.856Z,32.20
2017-07-19T11:50:36.392Z,32.20
2017-07-19T11:53:03.938Z,32.30
2017-07-19T11:55:32.373Z,32.40
2017-07-19T11:57:59.905Z,32.50
2017-07-19T12:00:27.443Z,32.60
2017-07-19T12:02:55.264Z,32.70
2017-07-19T12:05:22.806Z,32.80
2017-07-19T12:07:50.357Z,32.90
2017-07-19T12:10:18.476Z,33.00
2017-07-19T12:12:46.777Z,33.20
2017-07-19T12:15:14.314Z,33.20
2017-07-19T12:17:41.891Z,33.30
2017-07-19T12:20:09.461Z,33.30
2017-07-19T12:22:37.010Z,33.40
2017-07-19T12:25:05.941Z,33.50
2017-07-19T12:27:33.476Z,33.50
2017-07-19T12:30:01.005Z,33.60
2017-07-19T12:32:29.354Z,33.60
2017-07-19T12:34:56.949Z,33.50
2017-07-19T12:37:25.241Z,33.50
2017-07-19T12:39:52.773Z,33.50
2017-07-19T12:42:20.419Z,33.40
2017-07-19T12:44:47.952Z,33.40
2017-07-19T12:47:16.041Z,33.30
2017-07-19T12:49:43.584Z,33.20
2017-07-19T12:52:11.121Z,33.20
2017-07-19T12:54:39.029Z,33.20
2017-07-19T12:57:06.706Z,33.20
2017-07-19T12:59:34.434Z,33.30
2017-07-19T13:02:01.969Z,33.40
2017-07-19T13:04:29.589Z,33.60
2017-07-19T13:06:57.118Z,33.70
2017-07-19T13:09:25.005Z,33.70
2017-07-19T13:11:52.966Z,33.80
2017-07-19T13:14:20.492Z,33.90
2017-07-19T13:16:48.029Z,33.90
2017-07-19T13:19:16.058Z,33.80
2017-07-19T13:21:43.593Z,33.70
2017-07-19T13:24:11.125Z,33.60
2017-07-19T13:26:39.457Z,33.20
2017-07-19T13:29:06.988Z,33.20
2017-07-19T13:31:34.557Z,33.00
2017-07-19T13:34:02.558Z,32.80
2017-07-19T13:36:30.085Z,32.60
2017-07-19T13:38:57.622Z,32.50
2017-07-19T13:41:25.957Z,32.10
2017-07-19T13:43:53.501Z,32.10
2017-07-19T13:46:21.081Z,31.90
2017-07-19T13:48:48.614Z,31.80
2017-07-19T13:51:16.286Z,31.60
2017-07-19T13:53:43.817Z,31.50
2017-07-19T13:56:12.201Z,31.30
2017-07-19T13:58:39.744Z,31.20
2017-07-19T14:01:07.968Z,31.10
2017-07-19T14:03:35.498Z,31.00
2017-07-19T14:06:03.029Z,30.90
2017-07-19T14:08:31.365Z,30.20
2017-07-19T14:10:58.945Z,30.20
2017-07-19T14:13:26.477Z,29.40
2017-07-19T14:15:54.059Z,28.70
2017-07-19T14:18:21.597Z,28.10
2017-07-19T14:20:49.309Z,27.60
2017-07-19T14:23:17.610Z,26.60
2017-07-19T14:25:45.194Z,26.50
2017-07-19T14:28:12.746Z,26.10
2017-07-19T14:30:40.337Z,25.80
2017-07-19T14:33:07.874Z,25.50
2017-07-19T14:35:35.432Z,25.20
2017-07-19T14:38:08.234Z,24.90
2017-07-19T14:40:35.765Z,24.70
2017-07-19T14:43:03.657Z,24.40
2017-07-19T14:45:31.198Z,24.10
2017-07-19T14:47:59.500Z,23.50
2017-07-19T14:50:27.470Z,23.50
2017-07-19T14:52:55.010Z,23.50
2017-07-19T14:55:22.588Z,23.30
2017-07-19T14:57:51.254Z,23.20
2017-07-19T15:00:18.799Z,23.10
2017-07-19T15:02:46.369Z,22.90
2017-07-19T15:05:13.952Z,22.80
2017-07-19T15:07:41.560Z,22.70
2017-07-19T15:10:09.864Z,22.60
2017-07-19T15:12:37.406Z,22.60
2017-07-19T15:15:06.652Z,22.50
2017-07-19T15:17:34.184Z,22.30
2017-07-19T15:20:01.719Z,22.20
2017-07-19T15:22:29.876Z,22.10
2017-07-19T15:24:57.445Z,22.00
2017-07-19T15:27:25.763Z,22.00
2017-07-19T15:29:53.629Z,22.00
2017-07-19T15:32:21.164Z,22.00
2017-07-19T15:34:48.933Z,22.00
2017-07-19T15:37:16.589Z,21.90
2017-07-19T15:39:44.256Z,21.80
2017-07-19T15:42:11.878Z,21.70
2017-07-19T15:44:39.453Z,21.50
2017-07-19T15:47:07.001Z,21.30
2017-07-19T15:49:34.589Z,21.20
2017-07-19T15:52:02.134Z,21.20
2017-07-19T15:54:29.756Z,21.20
2017-07-19T15:56:58.966Z,21.20
2017-07-19T15:59:26.505Z,21.30
2017-07-19T16:01:54.203Z,21.30
2017-07-19T16:04:21.826Z,21.20
2017-07-19T16:06:50.215Z,21.20
2017-07-19T16:09:17.794Z,21.10
2017-07-19T16:11:45.447Z,21.10
2017-07-19T16:14:13.084Z,21.10
2017-07-19T16:16:40.626Z,21.10
2017-07-19T16:19:08.966Z,21.10
2017-07-19T16:21:36.510Z,21.10
2017-07-19T16:24:04.089Z,21.10
2017-07-19T16:26:31.644Z,21.10
2017-07-19T16:28:59.289Z,21.10
2017-07-19T16:31:26.825Z,21.00
2017-07-19T16:33:54.822Z,21.00
2017-07-19T16:36:22.365Z,21.00
2017-07-19T16:38:49.901Z,20.90
2017-07-19T16:41:17.553Z,20.90
2017-07-19T16:43:45.966Z,20.90
2017-07-19T16:46:13.861Z,20.80
2017-07-19T16:48:41.417Z,20.90
2017-07-19T16:51:08.948Z,20.90
2017-07-19T16:53:36.864Z,20.90
2017-07-19T16:56:04.769Z,21.00
2017-07-19T16:58:32.314Z,21.10
2017-07-19T17:00:59.962Z,21.10
2017-07-19T17:03:27.561Z,21.20
2017-07-19T17:05:55.413Z,21.20
2017-07-19T17:08:22.945Z,21.30
2017-07-19T17:10:50.489Z,21.30
2017-07-19T17:13:18.075Z,21.30
2017-07-19T17:15:45.617Z,21.30
2017-07-19T17:18:13.432Z,21.40
2017-07-19T17:20:40.991Z,21.40
2017-07-19T17:23:08.584Z,21.50
2017-07-19T17:25:36.130Z,21.50
2017-07-19T17:28:04.121Z,21.60
2017-07-19T17:30:31.662Z,21.60
2017-07-19T17:32:59.199Z,21.70
2017-07-19T17:35:27.349Z,21.90
2017-07-19T17:37:55.709Z,22.00
2017-07-19T17:40:23.254Z,22.00
2017-07-19T17:42:51.097Z,22.00
2017-07-19T17:45:18.641Z,22.10
2017-07-19T17:47:46.177Z,22.10
2017-07-19T17:50:14.061Z,22.10
2017-07-19T17:52:41.601Z,22.20
2017-07-19T17:55:09.148Z,22.20
2017-07-19T17:57:37.758Z,22.20
2017-07-19T18:00:06.059Z,22.10
2017-07-19T18:02:33.642Z,22.10
2017-07-19T18:05:01.225Z,22.10
2017-07-19T18:07:28.757Z,22.10
2017-07-19T18:09:56.306Z,22.00
2017-07-19T18:12:24.072Z,22.00
2017-07-19T18:14:51.649Z,22.00
2017-07-19T18:17:19.203Z,22.00
2017-07-19T18:19:47.082Z,22.00
2017-07-19T18:22:14.630Z,22.00
2017-07-19T18:24:42.169Z,22.00
2017-07-19T18:27:09.757Z,21.90
2017-07-19T18:29:37.292Z,21.90
2017-07-19T18:32:05.057Z,21.80
2017-07-19T18:34:32.598Z,21.80
2017-07-19T18:37:00.997Z,21.70
2017-07-19T18:39:28.537Z,21.70
2017-07-19T18:41:56.118Z,21.70
2017-07-19T18:44:23.658Z,21.60
2017-07-19T18:46:51.686Z,21.60
2017-07-19T18:49:19.216Z,21.50
2017-07-19T18:51:46.749Z,21.40
2017-07-19T18:54:19.653Z,21.40
2017-07-19T18:56:47.197Z,21.40
2017-07-19T18:59:19.935Z,21.40
2017-07-19T19:01:47.520Z,21.40
2017-07-19T19:04:15.070Z,21.40
2017-07-19T19:06:42.640Z,21.40
2017-07-19T19:09:11.135Z,21.40
2017-07-19T19:11:39.442Z,21.30
2017-07-19T19:14:07.017Z,21.30
2017-07-19T19:16:34.559Z,21.30
2017-07-19T19:19:02.146Z,21.30
2017-07-19T19:21:29.722Z,21.20
2017-07-19T19:23:57.261Z,21.20
2017-07-19T19:26:25.137Z,21.20
2017-07-19T19:28:52.669Z,21.20
2017-07-19T19:31:20.209Z,21.20
2017-07-19T19:33:52.679Z,21.10
2017-07-19T19:36:20.592Z,21.10
2017-07-19T19:38:48.126Z,21.00
2017-07-19T19:41:15.661Z,20.90
2017-07-19T19:43:43.794Z,20.90
2017-07-19T19:46:11.324Z,20.80
2017-07-19T19:48:38.862Z,20.80
2017-07-19T19:51:06.453Z,20.80
2017-07-19T19:53:33.985Z,20.80
2017-07-19T19:56:01.529Z,20.80
2017-07-19T19:58:30.252Z,20.70
2017-07-19T20:00:58.289Z,20.70
2017-07-19T20:03:25.886Z,20.60
2017-07-19T20:05:53.729Z,20.60
2017-07-19T20:08:21.269Z,20.60
2017-07-19T20:10:48.809Z,20.50
2017-07-19T20:13:16.652Z,20.50
2017-07-19T20:15:44.266Z,20.50
2017-07-19T20:18:17.316Z,20.50
2017-07-19T20:20:44.844Z,20.50
2017-07-19T20:23:12.385Z,20.40
2017-07-19T20:25:40.036Z,20.40
2017-07-19T20:28:07.609Z,20.40
2017-07-19T20:30:35.154Z,20.30
2017-07-19T20:33:03.546Z,20.20
2017-07-19T20:35:31.087Z,20.10
2017-07-19T20:37:58.629Z,20.20
2017-07-19T20:40:26.794Z,20.10
2017-07-19T20:42:54.332Z,20.10
2017-07-19T20:45:21.870Z,20.10
2017-07-19T20:47:50.090Z,20.00
2017-07-19T20:50:17.625Z,20.10
2017-07-19T20:52:45.171Z,20.00
2017-07-19T20:55:13.133Z,20.00
2017-07-19T20:57:40.684Z,20.00
2017-07-19T21:00:08.998Z,20.00
2017-07-19T21:02:38.305Z,20.00
2017-07-19T21:05:05.850Z,20.00
2017-07-19T21:07:33.388Z,19.90
2017-07-19T21:10:01.302Z,19.90
2017-07-19T21:12:28.842Z,19.90
2017-07-19T21:14:56.385Z,19.80
2017-07-19T21:17:23.971Z,19.80
2017-07-19T21:19:51.510Z,19.80
2017-07-19T21:22:19.513Z,19.80
2017-07-19T21:24:47.093Z,19.70
2017-07-19T21:27:14.649Z,19.70
2017-07-19T21:29:42.296Z,19.70
2017-07-19T21:32:09.881Z,19.70
2017-07-19T21:34:37.421Z,19.70
2017-07-19T21:37:05.413Z,19.70
2017-07-19T21:39:33.725Z,19.70
2017-07-19T21:42:01.261Z,19.70
2017-07-19T21:44:29.652Z,19.60
2017-07-19T21:46:57.678Z,19.60
2017-07-19T21:49:25.220Z,19.60
2017-07-19T21:51:52.762Z,19.60
2017-07-19T21:54:20.609Z,19.60
2017-07-19T21:56:48.158Z,19.60
2017-07-19T21:59:16.805Z,19.50
2017-07-19T22:01:44.341Z,19.50
2017-07-19T22:04:12.293Z,19.50
2017-07-19T22:06:39.889Z,19.50
2017-07-19T22:09:07.685Z,19.50
2017-07-19T22:11:35.221Z,19.50
2017-07-19T22:14:02.766Z,19.50
2017-07-19T22:16:30.778Z,19.50
2017-07-19T22:18:59.089Z,19.40
2017-07-19T22:21:26.639Z,19.40
2017-07-19T22:23:54.310Z,19.40
2017-07-19T22:26:22.325Z,19.40
2017-07-19T22:28:49.872Z,19.30
2017-07-19T22:31:17.414Z,19.30
2017-07-19T22:33:45.326Z,19.30
2017-07-19T22:36:12.878Z,19.30
2017-07-19T22:38:40.482Z,19.30
2017-07-19T22:41:08.027Z,19.30
2017-07-19T22:43:36.345Z,19.20
2017-07-19T22:46:04.037Z,19.20
2017-07-19T22:48:31.577Z,19.20
2017-07-19T22:50:59.125Z,19.20
2017-07-19T22:53:26.907Z,19.20
2017-07-19T22:55:55.881Z,19.20
2017-07-19T22:58:23.431Z,19.30
2017-07-19T23:00:50.977Z,19.30
2017-07-19T23:03:19.614Z,19.30
2017-07-19T23:05:47.149Z,19.30
2017-07-19T23:08:14.708Z,19.30
2017-07-19T23:10:42.349Z,19.30
2017-07-19T23:13:09.901Z,19.30
2017-07-19T23:15:38.215Z,19.30
2017-07-19T23:18:06.109Z,19.30
2017-07-19T23:20:33.650Z,19.30
2017-07-19T23:23:01.193Z,19.30
2017-07-19T23:25:28.782Z,19.30
2017-07-19T23:27:56.316Z,19.30
2017-07-19T23:30:23.949Z,19.30
2017-07-19T23:32:52.266Z,19.20
2017-07-19T23:35:19.848Z,19.20
2017-07-19T23:37:48.021Z,19.20
2017-07-19T23:40:15.569Z,19.20
2017-07-19T23:42:43.114Z,19.20
2017-07-19T23:45:11.114Z,19.20
2017-07-19T23:47:38.650Z,19.20
2017-07-19T23:50:06.193Z,19.30
2017-07-19T23:52:39.231Z,19.20
2017-07-19T23:55:07.386Z,19.20
2017-07-19T23:57:34.948Z,19.20
